Terminal Aerodrome Forecast
Issued by NWS North Platte, NE

Home | Current Version | Previous Version | Graphics & Text | Print | Product List | Glossary On
Versions: 1 2 3 4 5 6 7 8 9 10 11 12 13 14 15 16
498
FTUS43 KLBF 100531 CCA
TAFVTN
TAF COR
KVTN 100531Z 1006/1106 29008KT P6SM SKC WS020/32050KT
     FM101500 29011G17KT P6SM FEW250=

USA.gov is the U.S. government's official web portal to all federal, state and local government web resources and services.